Time;durP1;ratioP1;P1;durP2;ratioP2;P2;SDS_P1;SDS_P2;PMS_P1;PMS_P2;Temp;Humidity;BMP_temperature;BMP_pressure;BME280_temperature;BME280_humidity;BME280_pressure;Samples;Min_cycle;Max_cycle;Signal;HPM_P1;HPM_P2
2023/12/04 00:01:59;;;;;;;29.50;10.93;;;-1.30;99.90;;;;;;4981668;28;20042;-72
2023/12/04 00:04:25;;;;;;;24.27;10.45;;;-1.30;99.90;;;;;;4987047;28;20034;-72
2023/12/04 00:06:51;;;;;;;34.60;11.15;;;-1.30;99.90;;;;;;4982013;28;20062;-72
2023/12/04 00:09:17;;;;;;;26.40;10.30;;;-1.30;99.90;;;;;;4987088;28;20033;-72
2023/12/04 00:11:43;;;;;;;28.48;10.45;;;-1.30;99.90;;;;;;4983166;28;20038;-72
2023/12/04 00:14:09;;;;;;;28.45;11.85;;;-1.30;99.90;;;;;;4985182;28;20125;-72
2023/12/04 00:16:37;;;;;;;27.35;11.82;;;-1.30;99.90;;;;;;4985527;28;20038;-72
2023/12/04 00:19:03;;;;;;;27.35;10.40;;;-1.30;99.90;;;;;;4984664;28;20058;-72
2023/12/04 00:21:29;;;;;;;24.95;11.45;;;-1.30;99.90;;;;;;4985167;28;20066;-72
2023/12/04 00:23:55;;;;;;;27.75;11.30;;;-1.30;99.90;;;;;;4975057;28;20138;-72
2023/12/04 00:26:21;;;;;;;28.48;11.18;;;-1.30;99.90;;;;;;4990239;28;20060;-72
2023/12/04 00:28:46;;;;;;;30.23;11.85;;;-1.30;99.90;;;;;;4977918;28;20040;-72
2023/12/04 00:31:12;;;;;;;29.00;12.43;;;-1.30;99.90;;;;;;4987458;28;20031;-72
2023/12/04 00:33:38;;;;;;;31.17;11.52;;;-1.30;99.90;;;;;;4980752;28;20038;-72
2023/12/04 00:36:04;;;;;;;32.20;10.90;;;-1.40;99.90;;;;;;4991008;28;20042;-72
2023/12/04 00:38:30;;;;;;;27.60;11.55;;;-1.40;99.90;;;;;;4983397;28;20042;-72
2023/12/04 00:40:56;;;;;;;31.08;11.60;;;-1.40;99.90;;;;;;5003446;28;20530;-72
2023/12/04 00:43:22;;;;;;;30.55;11.63;;;-1.40;99.90;;;;;;4985381;28;20037;-72
2023/12/04 00:45:47;;;;;;;24.63;10.77;;;-1.40;99.90;;;;;;4992594;28;20034;-72
2023/12/04 00:48:13;;;;;;;29.50;11.50;;;-1.40;99.90;;;;;;4984494;28;20097;-72
2023/12/04 00:50:39;;;;;;;28.88;11.30;;;-1.40;99.90;;;;;;4989506;28;20041;-73
2023/12/04 00:53:05;;;;;;;26.77;10.10;;;-1.40;99.90;;;;;;4985975;28;20526;-72
2023/12/04 00:55:31;;;;;;;30.00;12.50;;;-1.40;99.90;;;;;;4989778;28;20057;-72
2023/12/04 00:57:56;;;;;;;27.92;11.13;;;-1.40;99.90;;;;;;4983870;28;20039;-72
2023/12/04 01:00:23;;;;;;;27.23;11.73;;;-1.50;99.90;;;;;;4989337;28;20065;-72
2023/12/04 01:02:48;;;;;;;26.42;11.50;;;-1.50;99.90;;;;;;4984565;28;20042;-72
2023/12/04 01:05:14;;;;;;;29.60;12.88;;;-1.50;99.90;;;;;;4987890;28;20037;-72
2023/12/04 01:07:40;;;;;;;23.70;11.27;;;-1.50;99.90;;;;;;4991291;28;20138;-72
2023/12/04 01:10:06;;;;;;;26.02;11.35;;;-1.40;99.90;;;;;;5002142;28;20102;-72
2023/12/04 01:12:32;;;;;;;33.53;11.95;;;-1.50;99.90;;;;;;4988255;28;20042;-71
2023/12/04 01:14:58;;;;;;;29.88;11.23;;;-1.40;99.90;;;;;;4985213;28;20070;-72
2023/12/04 01:17:24;;;;;;;29.15;10.18;;;-1.40;99.90;;;;;;4989959;28;20244;-72
2023/12/04 01:19:50;;;;;;;34.90;11.95;;;-1.40;99.90;;;;;;4984158;28;20402;-72
2023/12/04 01:22:15;;;;;;;25.92;10.70;;;-1.40;99.90;;;;;;4989658;28;20490;-72
2023/12/04 01:24:41;;;;;;;24.23;10.30;;;-1.40;99.90;;;;;;4984431;28;20133;-71
2023/12/04 01:27:07;;;;;;;31.92;11.50;;;-1.40;99.90;;;;;;4989685;28;20049;-72
2023/12/04 01:29:33;;;;;;;32.38;10.68;;;-1.50;99.90;;;;;;4988956;28;20041;-72
2023/12/04 01:31:59;;;;;;;24.35;10.43;;;-1.50;99.90;;;;;;4988659;28;20882;-72
2023/12/04 01:34:25;;;;;;;29.67;10.35;;;-1.50;99.90;;;;;;4986235;28;20034;-72
2023/12/04 01:36:51;;;;;;;29.30;11.98;;;-1.50;99.90;;;;;;4988983;28;20038;-72
2023/12/04 01:39:17;;;;;;;28.48;11.88;;;-1.50;99.90;;;;;;4983145;28;20040;-72
2023/12/04 01:41:42;;;;;;;30.13;12.77;;;-1.50;99.90;;;;;;4987022;28;20549;-72
2023/12/04 01:44:08;;;;;;;26.90;10.95;;;-1.40;99.90;;;;;;4979958;28;20113;-72
2023/12/04 01:46:34;;;;;;;27.13;10.65;;;-1.40;99.90;;;;;;4987844;28;20161;-72
2023/12/04 01:49:02;;;;;;;34.55;11.73;;;-1.40;99.90;;;;;;4981424;28;20031;-72
2023/12/04 01:51:29;;;;;;;28.42;11.85;;;-1.30;99.90;;;;;;4987803;28;20708;-73
2023/12/04 01:53:59;;;;;;;26.23;10.63;;;-1.40;99.90;;;;;;4983348;28;20066;-72
2023/12/04 01:56:25;;;;;;;29.67;11.48;;;-1.40;99.90;;;;;;4984555;28;20073;-72
2023/12/04 01:58:51;;;;;;;30.08;11.00;;;-1.30;99.90;;;;;;4982581;28;20158;-72
2023/12/04 02:01:19;;;;;;;34.08;11.35;;;-1.30;99.90;;;;;;4987796;28;20537;-72
2023/12/04 02:03:46;;;;;;;24.38;11.32;;;-1.30;99.90;;;;;;4983467;28;20105;-72
2023/12/04 02:06:12;;;;;;;28.17;11.70;;;-1.30;99.90;;;;;;4987173;28;20105;-72
2023/12/04 02:08:41;;;;;;;28.30;12.05;;;-1.30;99.90;;;;;;4982909;28;20484;-72
2023/12/04 02:11:06;;;;;;;29.05;11.88;;;-1.30;99.90;;;;;;4985689;28;20042;-72
2023/12/04 02:13:32;;;;;;;27.02;11.68;;;-1.30;99.90;;;;;;4984574;28;20069;-72
2023/12/04 02:16:03;;;;;;;31.75;11.18;;;-1.30;99.90;;;;;;4979990;28;20581;-72
2023/12/04 02:18:29;;;;;;;29.88;12.43;;;-1.30;99.90;;;;;;4987067;28;20806;-72
2023/12/04 02:20:55;;;;;;;28.13;12.57;;;-1.20;99.90;;;;;;4982840;28;20034;-72
2023/12/04 02:23:21;;;;;;;29.25;11.85;;;-1.30;99.90;;;;;;4987868;28;20041;-72
2023/12/04 02:25:47;;;;;;;29.90;12.32;;;-1.30;99.90;;;;;;4983808;28;20074;-72
2023/12/04 02:28:15;;;;;;;30.73;12.57;;;-1.30;99.90;;;;;;4991951;28;20035;-73
2023/12/04 02:30:43;;;;;;;31.77;11.30;;;-1.30;99.90;;;;;;4986723;28;20038;-72
2023/12/04 02:33:11;;;;;;;30.85;11.82;;;-1.30;99.90;;;;;;4987628;28;20192;-72
2023/12/04 02:35:40;;;;;;;32.33;12.23;;;-1.30;99.90;;;;;;4984339;28;20034;-72
2023/12/04 02:38:06;;;;;;;31.13;11.15;;;-1.30;99.90;;;;;;4986293;28;20042;-72
2023/12/04 02:40:32;;;;;;;32.17;11.45;;;-1.40;99.90;;;;;;4983774;28;20087;-72
2023/12/04 02:42:59;;;;;;;24.88;10.43;;;-1.40;99.90;;;;;;4987239;28;20035;-73
2023/12/04 02:45:25;;;;;;;30.45;11.93;;;-1.50;99.90;;;;;;4984756;28;20437;-72
2023/12/04 02:47:50;;;;;;;29.55;12.32;;;-1.50;99.90;;;;;;5002658;28;20038;-73
2023/12/04 02:50:16;;;;;;;27.67;10.77;;;-1.40;99.90;;;;;;4984433;28;20040;-72
2023/12/04 02:52:42;;;;;;;30.42;12.07;;;-1.40;99.90;;;;;;4990625;28;20038;-73
2023/12/04 02:55:08;;;;;;;31.23;12.88;;;-1.40;99.90;;;;;;4983201;28;20034;-73
2023/12/04 02:57:34;;;;;;;27.73;11.55;;;-1.40;99.90;;;;;;4990831;28;20532;-73
2023/12/04 03:00:00;;;;;;;30.23;11.23;;;-1.40;99.90;;;;;;4979681;28;20118;-73
2023/12/04 03:02:25;;;;;;;35.50;12.15;;;-1.40;99.90;;;;;;4986440;28;20557;-73
2023/12/04 03:04:51;;;;;;;27.00;11.05;;;-1.40;99.90;;;;;;4980485;28;20391;-72
2023/12/04 03:07:20;;;;;;;32.00;11.70;;;-1.50;99.90;;;;;;4985937;28;20022;-73
2023/12/04 03:09:46;;;;;;;26.95;12.13;;;-1.50;99.90;;;;;;4979875;28;20065;-72
2023/12/04 03:12:11;;;;;;;31.50;11.98;;;-1.50;99.90;;;;;;4985189;28;20054;-72
2023/12/04 03:14:37;;;;;;;28.02;12.07;;;-1.50;99.90;;;;;;4979348;28;20030;-72
2023/12/04 03:17:03;;;;;;;29.45;12.23;;;-1.60;99.90;;;;;;4983333;28;20018;-73
2023/12/04 03:19:29;;;;;;;25.73;11.20;;;-1.50;99.90;;;;;;4984678;28;20035;-72
2023/12/04 03:21:55;;;;;;;26.25;12.15;;;-1.60;99.90;;;;;;4995603;28;20041;-73
2023/12/04 03:24:21;;;;;;;29.50;10.88;;;-1.50;99.90;;;;;;4986422;28;20045;-73
2023/12/04 03:26:46;;;;;;;26.83;10.85;;;-1.50;99.90;;;;;;4982342;28;20037;-73
2023/12/04 03:29:12;;;;;;;30.08;11.40;;;-1.50;99.90;;;;;;4985316;28;20038;-72
2023/12/04 03:31:39;;;;;;;31.13;12.75;;;-1.50;99.90;;;;;;4982374;28;20689;-73
2023/12/04 03:34:04;;;;;;;27.05;11.25;;;-1.50;99.90;;;;;;4985767;28;20114;-72
2023/12/04 03:36:30;;;;;;;25.58;12.30;;;-1.40;99.90;;;;;;4982513;28;20121;-73
2023/12/04 03:38:56;;;;;;;24.95;10.65;;;-1.50;99.90;;;;;;4984990;28;20050;-72
2023/12/04 03:41:23;;;;;;;29.88;11.65;;;-1.50;99.90;;;;;;4983011;28;20459;-73
2023/12/04 03:43:48;;;;;;;28.50;12.07;;;-1.50;99.90;;;;;;4985429;28;20034;-73
2023/12/04 03:46:14;;;;;;;27.65;11.23;;;-1.60;99.90;;;;;;4981902;28;20114;-73
2023/12/04 03:48:40;;;;;;;30.90;11.63;;;-1.60;99.90;;;;;;4987855;28;20041;-73
2023/12/04 03:51:06;;;;;;;26.88;11.15;;;-1.60;99.90;;;;;;4979247;28;20032;-72
2023/12/04 03:53:32;;;;;;;26.90;11.57;;;-1.60;99.90;;;;;;4984544;28;20403;-73
2023/12/04 03:55:59;;;;;;;26.75;10.77;;;-1.60;99.90;;;;;;4978173;28;20117;-73
2023/12/04 03:58:24;;;;;;;28.05;12.52;;;-1.60;99.90;;;;;;4990122;28;20042;-72
2023/12/04 04:00:50;;;;;;;28.27;11.25;;;-1.60;99.90;;;;;;4978131;28;20045;-73
2023/12/04 04:03:16;;;;;;;25.40;10.88;;;-1.50;99.90;;;;;;4989324;28;20026;-73
2023/12/04 04:05:42;;;;;;;25.70;10.43;;;-1.60;99.90;;;;;;4979753;28;20577;-73
2023/12/04 04:08:08;;;;;;;30.33;12.82;;;-1.60;99.90;;;;;;4989117;28;20046;-73
2023/12/04 04:10:34;;;;;;;26.65;11.55;;;-1.60;99.90;;;;;;4981443;28;20042;-72
2023/12/04 04:13:00;;;;;;;28.90;11.35;;;-1.60;99.90;;;;;;4987352;28;20049;-73
2023/12/04 04:15:26;;;;;;;28.75;11.63;;;-1.60;99.90;;;;;;4983839;28;20042;-73
2023/12/04 04:17:52;;;;;;;27.92;11.55;;;-1.70;99.90;;;;;;4979949;28;20036;-73
2023/12/04 04:20:18;;;;;;;25.95;9.55;;;-1.60;99.90;;;;;;4984197;28;21008;-72
2023/12/04 04:22:46;;;;;;;32.92;11.50;;;-1.60;99.90;;;;;;4980901;28;20224;-73
2023/12/04 04:25:12;;;;;;;30.73;12.00;;;-1.60;99.90;;;;;;4984626;28;20038;-73
2023/12/04 04:27:38;;;;;;;30.70;11.10;;;-1.50;99.90;;;;;;4980721;28;20034;-73
2023/12/04 04:30:04;;;;;;;25.58;10.73;;;-1.40;99.90;;;;;;4981784;28;20062;-73
2023/12/04 04:32:30;;;;;;;23.15;10.10;;;-1.40;99.90;;;;;;4980774;28;20112;-73
2023/12/04 04:34:56;;;;;;;27.98;11.25;;;-1.30;99.90;;;;;;4982942;28;20070;-73
2023/12/04 04:37:22;;;;;;;25.65;11.52;;;-1.30;99.90;;;;;;4986771;28;20830;-72
2023/12/04 04:39:48;;;;;;;29.70;10.90;;;-1.40;99.90;;;;;;4983800;28;20117;-73
2023/12/04 04:42:14;;;;;;;27.92;12.23;;;-1.30;99.90;;;;;;4985897;28;20039;-73
2023/12/04 04:44:40;;;;;;;30.05;10.73;;;-1.30;99.90;;;;;;4986367;28;20030;-73
2023/12/04 04:47:06;;;;;;;30.52;11.77;;;-1.30;99.90;;;;;;4981213;28;20741;-73
2023/12/04 04:49:32;;;;;;;31.65;11.68;;;-1.30;99.90;;;;;;4987718;28;20034;-73
2023/12/04 04:51:58;;;;;;;26.48;11.10;;;-1.30;99.90;;;;;;4985079;28;20049;-73
2023/12/04 04:54:24;;;;;;;29.63;10.77;;;-1.20;99.90;;;;;;4988970;28;20212;-73
2023/12/04 04:56:51;;;;;;;30.27;11.48;;;-1.20;99.90;;;;;;4976553;28;20141;-73
2023/12/04 04:59:16;;;;;;;30.77;11.90;;;-1.30;99.90;;;;;;4989488;28;20030;-73
2023/12/04 05:01:42;;;;;;;28.75;11.82;;;-1.20;99.90;;;;;;4978217;28;20057;-73
2023/12/04 05:04:08;;;;;;;29.25;10.98;;;-1.30;99.90;;;;;;4988469;28;20034;-72
2023/12/04 05:06:34;;;;;;;30.00;11.73;;;-1.30;99.90;;;;;;4982637;28;20038;-73
2023/12/04 05:09:00;;;;;;;26.05;11.50;;;-1.30;99.90;;;;;;4988511;28;20046;-72
2023/12/04 05:11:26;;;;;;;26.50;11.77;;;-1.30;99.90;;;;;;4980069;28;20076;-73
2023/12/04 05:13:51;;;;;;;21.52;9.68;;;-1.30;99.90;;;;;;4985035;28;20046;-73
2023/12/04 05:16:17;;;;;;;30.60;10.77;;;-1.30;99.90;;;;;;4982511;28;20117;-73
2023/12/04 05:18:43;;;;;;;22.73;9.93;;;-1.40;99.90;;;;;;4987398;28;20129;-73
2023/12/04 05:21:10;;;;;;;26.95;10.70;;;-1.40;99.90;;;;;;4999797;28;20031;-73
2023/12/04 05:23:40;;;;;;;24.00;10.23;;;-1.30;99.90;;;;;;4989836;28;20039;-72
2023/12/04 05:26:06;;;;;;;23.67;10.43;;;-1.40;99.90;;;;;;4985550;28;20035;-73
2023/12/04 05:28:33;;;;;;;21.70;10.32;;;-1.40;99.90;;;;;;4988900;28;20474;-73
2023/12/04 05:30:59;;;;;;;25.95;10.88;;;-1.40;99.90;;;;;;4984893;28;20524;-72
2023/12/04 05:33:25;;;;;;;24.63;10.32;;;-1.40;99.90;;;;;;4994152;28;20030;-73
2023/12/04 05:35:52;;;;;;;25.52;10.07;;;-1.40;99.90;;;;;;4985689;28;20038;-73
2023/12/04 05:38:18;;;;;;;26.77;11.70;;;-1.40;99.90;;;;;;4983748;28;20034;-73
2023/12/04 05:40:44;;;;;;;25.08;10.43;;;-1.40;99.90;;;;;;4986871;28;20720;-73
2023/12/04 05:43:10;;;;;;;24.23;10.38;;;-1.40;99.90;;;;;;4996814;28;20038;-73
2023/12/04 05:45:36;;;;;;;27.17;10.52;;;-1.40;99.90;;;;;;4988763;28;20031;-73
2023/12/04 05:48:02;;;;;;;23.17;10.23;;;-1.40;99.90;;;;;;4980164;28;20047;-73
2023/12/04 05:50:28;;;;;;;23.92;10.70;;;-1.30;99.90;;;;;;4988297;28;20432;-73
2023/12/04 05:52:54;;;;;;;29.73;11.82;;;-1.30;99.90;;;;;;4977464;28;20042;-73
2023/12/04 05:55:20;;;;;;;24.80;10.30;;;-1.30;99.90;;;;;;4985183;28;20040;-73
2023/12/04 05:57:46;;;;;;;23.98;9.75;;;-1.30;99.90;;;;;;4979621;28;20042;-73
2023/12/04 06:00:13;;;;;;;22.40;10.75;;;-1.30;99.90;;;;;;4990631;28;20509;-72
2023/12/04 06:02:39;;;;;;;23.08;10.05;;;-1.40;99.90;;;;;;4980396;28;20529;-72
2023/12/04 06:05:07;;;;;;;24.20;9.75;;;-1.30;99.90;;;;;;4989818;28;20142;-73
2023/12/04 06:07:33;;;;;;;21.42;9.32;;;-1.30;99.90;;;;;;4983868;28;20132;-73
2023/12/04 06:09:59;;;;;;;25.23;9.75;;;-1.10;99.90;;;;;;4988515;28;20039;-72
2023/12/04 06:12:25;;;;;;;23.15;9.23;;;-1.20;99.90;;;;;;4984095;28;20035;-73
2023/12/04 06:14:51;;;;;;;25.33;9.52;;;-1.10;99.90;;;;;;4987190;28;20030;-73
2023/12/04 06:17:17;;;;;;;26.42;9.85;;;-1.00;99.90;;;;;;4984500;28;20028;-73
2023/12/04 06:19:43;;;;;;;22.55;10.60;;;-1.00;99.90;;;;;;4988283;28;20038;-73
2023/12/04 06:22:09;;;;;;;22.17;9.57;;;-0.90;99.90;;;;;;4980149;28;20043;-73
2023/12/04 06:24:35;;;;;;;21.02;8.75;;;-0.90;99.90;;;;;;4988412;28;20034;-72
2023/12/04 06:27:01;;;;;;;21.77;9.45;;;-0.90;99.90;;;;;;4983001;28;20035;-72
2023/12/04 06:29:27;;;;;;;24.75;9.75;;;-0.90;99.90;;;;;;5001223;28;20084;-73
2023/12/04 06:31:54;;;;;;;20.27;9.63;;;-0.80;99.90;;;;;;4982387;28;20034;-73
2023/12/04 06:34:20;;;;;;;20.63;9.20;;;-0.80;99.90;;;;;;4988856;28;20183;-73
2023/12/04 06:36:46;;;;;;;24.35;9.25;;;-0.80;99.90;;;;;;4986378;28;20072;-73
2023/12/04 06:39:13;;;;;;;21.65;8.70;;;-0.90;99.90;;;;;;4989089;28;20038;-73
2023/12/04 06:41:43;;;;;;;23.00;9.73;;;-0.80;99.90;;;;;;4988673;28;20038;-73
2023/12/04 06:44:10;;;;;;;23.75;9.88;;;-0.80;99.90;;;;;;4986709;28;20046;-72
2023/12/04 06:46:38;;;;;;;24.33;8.63;;;-0.70;99.90;;;;;;4986434;28;20042;-73
2023/12/04 06:49:08;;;;;;;19.38;8.85;;;-0.70;99.90;;;;;;4985388;28;20034;-72
2023/12/04 06:51:34;;;;;;;22.27;9.73;;;-0.60;99.90;;;;;;4988346;28;20041;-73
2023/12/04 06:54:00;;;;;;;23.90;9.68;;;-0.50;99.90;;;;;;4984078;28;20038;-73
2023/12/04 06:56:26;;;;;;;21.67;9.25;;;-0.50;99.90;;;;;;4988729;28;20185;-73
2023/12/04 06:58:51;;;;;;;29.75;12.13;;;-0.40;99.90;;;;;;4977188;28;20078;-73
2023/12/04 07:01:17;;;;;;;34.00;12.75;;;-0.40;99.90;;;;;;4989432;28;20060;-73
2023/12/04 07:03:43;;;;;;;25.45;11.68;;;-0.30;99.90;;;;;;4977720;28;20035;-73
2023/12/04 07:06:09;;;;;;;22.98;11.18;;;-0.30;99.90;;;;;;4989044;28;20081;-73
2023/12/04 07:08:35;;;;;;;21.23;10.20;;;-0.30;99.90;;;;;;4979739;28;20365;-73
2023/12/04 07:11:01;;;;;;;17.95;8.77;;;-0.30;99.90;;;;;;4986752;28;20506;-72
2023/12/04 07:13:26;;;;;;;19.60;9.05;;;-0.20;99.90;;;;;;4981209;28;20034;-73
2023/12/04 07:15:52;;;;;;;21.02;8.98;;;-0.20;99.90;;;;;;4985474;28;20045;-73
2023/12/04 07:18:18;;;;;;;21.95;9.38;;;-0.10;99.90;;;;;;4982448;28;20034;-73
2023/12/04 07:20:44;;;;;;;18.88;8.05;;;-0.10;99.90;;;;;;4984138;28;20783;-73
2023/12/04 07:23:10;;;;;;;19.88;8.20;;;-0.10;99.90;;;;;;4981304;28;20042;-73
2023/12/04 07:25:36;;;;;;;22.83;8.85;;;-0.20;99.90;;;;;;4986464;28;20061;-72
2023/12/04 07:28:02;;;;;;;20.52;9.02;;;-0.10;99.90;;;;;;4980620;28;20062;-72
2023/12/04 07:30:27;;;;;;;18.20;8.70;;;-0.10;99.90;;;;;;4989289;28;20037;-73
2023/12/04 07:32:53;;;;;;;20.23;8.48;;;-0.10;99.90;;;;;;4980714;28;20038;-73
2023/12/04 07:35:19;;;;;;;20.85;9.32;;;-0.10;99.90;;;;;;5001801;28;20128;-73
2023/12/04 07:37:45;;;;;;;18.77;8.50;;;-0.10;99.90;;;;;;4982844;28;20073;-73
2023/12/04 07:40:11;;;;;;;17.38;8.30;;;-0.10;99.90;;;;;;4985861;28;20038;-74
2023/12/04 07:42:38;;;;;;;21.27;10.13;;;-0.10;99.90;;;;;;4982963;28;20030;-73
2023/12/04 07:45:05;;;;;;;23.98;9.40;;;-0.10;99.90;;;;;;4983975;28;20035;-73
2023/12/04 07:47:30;;;;;;;19.75;8.40;;;-0.10;99.90;;;;;;4985852;28;20030;-73
2023/12/04 07:49:56;;;;;;;22.40;9.02;;;0.00;99.90;;;;;;4984837;28;20125;-73
2023/12/04 07:52:22;;;;;;;17.35;8.55;;;0.10;99.90;;;;;;4981380;28;20106;-73
2023/12/04 07:54:48;;;;;;;16.02;7.55;;;0.10;99.90;;;;;;4982565;28;20525;-73
2023/12/04 07:57:14;;;;;;;16.77;8.07;;;0.20;99.90;;;;;;4986186;28;20047;-73
2023/12/04 07:59:40;;;;;;;22.23;9.82;;;0.20;99.90;;;;;;4982770;28;20107;-73
2023/12/04 08:02:06;;;;;;;20.50;8.18;;;0.30;99.90;;;;;;4982208;28;20042;-73
2023/12/04 08:04:31;;;;;;;19.35;7.75;;;0.30;99.90;;;;;;4982772;28;20026;-73
2023/12/04 08:06:57;;;;;;;18.67;8.50;;;0.30;99.90;;;;;;4986047;28;20026;-73
2023/12/04 08:09:23;;;;;;;18.88;9.02;;;0.30;99.90;;;;;;4983922;28;20802;-73
2023/12/04 08:11:49;;;;;;;20.73;8.38;;;0.40;99.90;;;;;;4986382;28;20488;-73
2023/12/04 08:14:16;;;;;;;18.27;8.00;;;0.40;99.90;;;;;;4980360;28;20040;-73
2023/12/04 08:16:41;;;;;;;18.52;8.40;;;0.50;99.90;;;;;;4984549;28;20034;-73
2023/12/04 08:19:07;;;;;;;17.98;8.50;;;0.50;99.90;;;;;;4979125;28;20039;-73
2023/12/04 08:21:33;;;;;;;22.25;8.48;;;0.50;99.90;;;;;;4985330;28;20101;-73
2023/12/04 08:23:59;;;;;;;19.20;9.07;;;0.60;99.90;;;;;;4979053;28;20853;-73
2023/12/04 08:26:25;;;;;;;18.02;8.30;;;0.60;99.90;;;;;;4985624;28;20120;-73
2023/12/04 08:28:52;;;;;;;19.75;8.55;;;0.60;99.90;;;;;;4983802;28;20069;-73
2023/12/04 08:31:18;;;;;;;20.13;8.60;;;0.60;99.90;;;;;;4985599;28;20038;-73
2023/12/04 08:33:45;;;;;;;15.85;8.18;;;0.60;99.90;;;;;;4987225;28;20041;-73
2023/12/04 08:36:12;;;;;;;18.48;7.50;;;0.60;99.90;;;;;;4979282;28;20062;-74
2023/12/04 08:38:38;;;;;;;16.98;8.50;;;0.60;99.90;;;;;;4973548;28;20093;-72
2023/12/04 08:41:04;;;;;;;16.88;7.68;;;0.60;99.90;;;;;;4983615;28;20528;-67
2023/12/04 08:43:31;;;;;;;19.42;8.52;;;0.60;99.90;;;;;;4983760;28;20035;-71
2023/12/04 08:45:57;;;;;;;17.48;7.95;;;0.70;99.90;;;;;;4983152;28;20030;-71
2023/12/04 08:48:23;;;;;;;18.80;8.40;;;0.70;99.90;;;;;;4984953;28;20089;-72
2023/12/04 08:50:48;;;;;;;17.67;7.82;;;0.70;99.90;;;;;;4982434;28;20038;-72
2023/12/04 08:53:14;;;;;;;21.50;8.88;;;0.70;99.90;;;;;;4984977;28;20419;-70
2023/12/04 08:55:40;;;;;;;16.95;8.40;;;0.80;99.90;;;;;;4985127;28;20026;-71
2023/12/04 08:58:06;;;;;;;21.63;9.05;;;0.80;99.90;;;;;;4988990;28;20470;-71
2023/12/04 09:00:32;;;;;;;20.42;9.45;;;0.90;99.90;;;;;;4984997;28;20558;-71
2023/12/04 09:02:58;;;;;;;20.50;9.13;;;0.90;99.90;;;;;;4988529;28;20535;-71
2023/12/04 09:05:24;;;;;;;18.77;8.98;;;0.90;99.90;;;;;;4986223;28;20034;-71
2023/12/04 09:07:50;;;;;;;21.55;9.48;;;0.90;99.90;;;;;;4988184;28;20533;-71
2023/12/04 09:10:16;;;;;;;22.48;9.05;;;0.90;99.90;;;;;;4985587;28;20041;-69
2023/12/04 09:12:42;;;;;;;19.95;10.27;;;0.90;99.80;;;;;;4990157;28;20041;-71
2023/12/04 09:15:08;;;;;;;22.15;10.25;;;1.00;99.90;;;;;;4983083;28;20034;-71
2023/12/04 09:17:34;;;;;;;19.52;9.60;;;1.00;99.60;;;;;;4989455;28;20776;-72
2023/12/04 09:20:00;;;;;;;20.67;9.10;;;1.00;99.70;;;;;;4979633;28;20034;-72
2023/12/04 09:22:26;;;;;;;21.27;9.02;;;1.10;99.70;;;;;;4991396;28;20038;-72
2023/12/04 09:24:52;;;;;;;23.20;10.43;;;1.10;99.80;;;;;;4981359;28;20035;-72
2023/12/04 09:27:17;;;;;;;20.90;9.75;;;1.10;99.50;;;;;;4994055;28;20172;-71
2023/12/04 09:29:43;;;;;;;24.17;11.10;;;1.10;99.50;;;;;;4982146;28;20097;-72
2023/12/04 09:32:10;;;;;;;21.48;9.30;;;1.20;99.60;;;;;;4992480;28;20038;-72
2023/12/04 09:34:36;;;;;;;21.67;9.35;;;1.20;99.50;;;;;;4984213;28;20039;-72
2023/12/04 09:37:03;;;;;;;24.40;9.30;;;1.20;99.50;;;;;;4984133;28;20038;-72
2023/12/04 09:39:29;;;;;;;26.05;10.90;;;1.30;99.50;;;;;;4985655;28;20026;-72
2023/12/04 09:41:56;;;;;;;21.75;10.18;;;1.40;99.50;;;;;;4982442;28;20060;-71
2023/12/04 09:44:24;;;;;;;22.77;10.40;;;1.30;99.30;;;;;;4986971;28;20502;-71
2023/12/04 09:46:51;;;;;;;22.67;10.35;;;1.30;99.40;;;;;;4982974;28;20407;-71
2023/12/04 09:49:18;;;;;;;18.40;8.55;;;1.30;99.40;;;;;;4987473;28;20702;-72
2023/12/04 09:51:44;;;;;;;25.02;10.68;;;1.30;99.40;;;;;;4981828;28;20411;-69
2023/12/04 09:54:12;;;;;;;25.95;10.82;;;1.30;99.80;;;;;;4985162;28;20134;-70
2023/12/04 09:56:38;;;;;;;20.42;9.20;;;1.30;99.50;;;;;;4989190;28;20034;-71
2023/12/04 09:59:07;;;;;;;21.90;10.23;;;1.40;99.50;;;;;;4986490;28;20550;-71
2023/12/04 10:01:36;;;;;;;19.92;10.18;;;1.40;99.40;;;;;;4983821;28;20030;-71
2023/12/04 10:04:05;;;;;;;17.83;8.60;;;1.50;99.60;;;;;;4986815;28;20027;-72
2023/12/04 10:06:31;;;;;;;25.88;10.25;;;1.50;99.60;;;;;;4982772;28;20037;-72
2023/12/04 10:08:58;;;;;;;20.92;8.85;;;1.60;99.50;;;;;;4986232;28;20035;-70
2023/12/04 10:11:26;;;;;;;20.50;9.48;;;1.70;99.30;;;;;;4984181;28;20744;-71
2023/12/04 10:13:54;;;;;;;21.88;9.55;;;1.70;98.70;;;;;;4986562;28;20137;-71
2023/12/04 10:16:34;;;;;;;19.60;9.55;;;1.70;98.90;;;;;;4984897;28;20044;-71
2023/12/04 10:19:19;;;;;;;21.83;10.00;;;1.70;99.00;;;;;;4985782;28;20503;-71
2023/12/04 10:21:47;;;;;;;18.33;8.45;;;1.80;99.10;;;;;;4986197;28;20121;-71
2023/12/04 10:24:31;;;;;;;20.75;9.20;;;1.90;98.80;;;;;;4983081;28;20037;-71
2023/12/04 10:26:57;;;;;;;21.23;8.75;;;1.90;98.60;;;;;;4983204;28;20038;-70
2023/12/04 10:29:24;;;;;;;19.73;8.75;;;1.90;98.80;;;;;;4987529;28;20123;-70
2023/12/04 10:31:52;;;;;;;18.60;8.88;;;1.80;98.60;;;;;;4983410;28;20062;-71
2023/12/04 10:34:18;;;;;;;17.02;8.38;;;1.90;98.60;;;;;;4988472;28;20494;-71
2023/12/04 10:36:46;;;;;;;20.63;8.80;;;1.90;98.50;;;;;;4983658;28;20614;-71
2023/12/04 10:39:13;;;;;;;19.90;9.13;;;1.90;98.40;;;;;;4987069;28;20153;-71
2023/12/04 10:41:39;;;;;;;20.58;9.25;;;1.80;98.70;;;;;;4988245;28;20625;-71
2023/12/04 10:44:04;;;;;;;18.92;8.32;;;1.80;98.80;;;;;;4987561;28;20027;-70
2023/12/04 10:46:31;;;;;;;18.35;8.38;;;1.80;98.80;;;;;;4986497;28;20045;-70
2023/12/04 10:48:58;;;;;;;17.05;8.73;;;1.70;98.80;;;;;;4987342;28;20490;-71
2023/12/04 10:51:25;;;;;;;20.05;8.55;;;1.80;99.00;;;;;;4982433;28;20044;-70
2023/12/04 10:53:51;;;;;;;19.27;9.25;;;1.80;99.00;;;;;;4985120;28;20045;-70
2023/12/04 10:56:33;;;;;;;17.90;7.97;;;1.80;98.90;;;;;;4981866;28;20026;-69
2023/12/04 10:59:04;;;;;;;21.30;8.93;;;1.80;98.80;;;;;;4986172;28;20038;-66
2023/12/04 11:01:31;;;;;;;18.33;8.43;;;1.80;98.90;;;;;;4983316;28;20027;-69
2023/12/04 11:04:02;;;;;;;17.63;8.07;;;1.80;98.90;;;;;;4987070;28;20046;-70
2023/12/04 11:06:30;;;;;;;18.40;8.07;;;1.80;99.20;;;;;;4980312;28;20081;-70
2023/12/04 11:08:58;;;;;;;17.35;7.93;;;1.80;99.30;;;;;;4985806;28;20069;-70
2023/12/04 11:11:46;;;;;;;18.42;7.93;;;1.90;99.20;;;;;;4981989;28;20049;-70
2023/12/04 11:14:18;;;;;;;19.60;8.52;;;2.00;99.10;;;;;;4989082;28;20097;-70
2023/12/04 11:16:54;;;;;;;20.00;8.15;;;2.10;98.80;;;;;;4981954;28;20042;-67
2023/12/04 11:19:57;;;;;;;16.90;8.43;;;2.10;98.70;;;;;;4989781;28;20069;-70
2023/12/04 11:22:25;;;;;;;19.10;8.20;;;2.00;98.70;;;;;;4981896;28;20030;-70
2023/12/04 11:24:52;;;;;;;19.52;8.23;;;2.00;99.00;;;;;;4984781;28;20027;-71
2023/12/04 11:27:19;;;;;;;17.83;7.90;;;2.00;98.80;;;;;;4982923;28;20096;-70
2023/12/04 11:29:49;;;;;;;15.98;7.82;;;2.00;99.10;;;;;;4982245;28;20074;-70
2023/12/04 11:32:16;;;;;;;17.25;7.63;;;2.10;99.00;;;;;;4981813;28;20681;-70
2023/12/04 11:35:00;;;;;;;16.25;8.55;;;2.10;98.90;;;;;;4986252;28;20037;-71
2023/12/04 11:37:26;;;;;;;15.70;7.75;;;2.10;98.80;;;;;;4997171;28;20224;-71
2023/12/04 11:39:54;;;;;;;18.08;7.97;;;2.10;99.00;;;;;;4985541;28;20065;-70
2023/12/04 11:42:23;;;;;;;15.60;7.55;;;2.10;99.10;;;;;;4983047;28;20448;-70
2023/12/04 11:44:56;;;;;;;18.13;7.68;;;2.20;99.00;;;;;;4983434;28;20062;-71
2023/12/04 11:47:22;;;;;;;14.90;6.95;;;2.20;99.00;;;;;;4982969;28;20368;-70
2023/12/04 11:49:48;;;;;;;15.80;7.75;;;2.30;99.00;;;;;;4987330;28;20085;-70
2023/12/04 11:52:14;;;;;;;21.00;8.18;;;2.20;99.00;;;;;;4977783;28;20046;-73
2023/12/04 11:55:04;;;;;;;14.13;7.13;;;2.20;98.90;;;;;;4986215;28;20041;-70
2023/12/04 11:57:42;;;;;;;17.73;7.18;;;2.10;99.00;;;;;;4981353;28;20069;-69
2023/12/04 12:00:11;;;;;;;12.93;7.07;;;2.10;98.90;;;;;;4987060;28;20073;-69
2023/12/04 12:02:40;;;;;;;16.13;7.45;;;2.20;99.20;;;;;;4982758;28;20485;-70
2023/12/04 12:05:07;;;;;;;12.88;6.65;;;2.20;99.40;;;;;;4986336;28;20030;-70
2023/12/04 12:07:34;;;;;;;18.02;7.25;;;2.20;99.30;;;;;;4982503;28;20038;-69
2023/12/04 12:10:01;;;;;;;13.20;7.88;;;2.20;98.80;;;;;;4985730;28;20031;-70
2023/12/04 12:12:27;;;;;;;13.75;6.10;;;2.10;99.00;;;;;;4978194;28;20031;-70
2023/12/04 12:14:53;;;;;;;13.77;6.93;;;2.20;99.40;;;;;;4980504;28;20080;-70
2023/12/04 12:17:19;;;;;;;15.55;6.85;;;2.10;99.30;;;;;;4980580;28;20030;-70
2023/12/04 12:19:45;;;;;;;15.55;7.45;;;2.10;99.40;;;;;;4983720;28;20069;-69
2023/12/04 12:22:11;;;;;;;14.13;6.00;;;2.10;99.40;;;;;;4979609;28;20061;-70
2023/12/04 12:24:37;;;;;;;15.60;6.60;;;2.10;99.70;;;;;;4981752;28;20054;-69
2023/12/04 12:27:04;;;;;;;13.32;6.50;;;2.10;99.50;;;;;;4978723;28;20030;-70
2023/12/04 12:29:30;;;;;;;15.90;7.35;;;2.30;99.50;;;;;;4983357;28;20526;-70
2023/12/04 12:31:56;;;;;;;14.75;6.50;;;2.20;99.20;;;;;;4979094;28;20499;-70
2023/12/04 12:34:22;;;;;;;16.58;7.57;;;2.10;99.40;;;;;;4984979;28;20038;-70